Time;durP1;ratioP1;P1;durP2;ratioP2;P2;SDS_P1;SDS_P2;PMS_P1;PMS_P2;Temp;Humidity;BMP_temperature;BMP_pressure;BME280_temperature;BME280_humidity;BME280_pressure;Samples;Min_cycle;Max_cycle;Signal;HPM_P1;HPM_P2
2021/09/08 00:01:47;;;;;;;66.28;37.55;;;17.90;99.90;;;;;;5031352;28;20068;-60
2021/09/08 00:04:13;;;;;;;67.60;36.40;;;17.90;99.90;;;;;;5030847;28;20495;-60
2021/09/08 00:06:39;;;;;;;62.28;38.08;;;17.90;99.90;;;;;;5031384;28;20384;-59
2021/09/08 00:09:04;;;;;;;62.58;38.03;;;17.90;99.90;;;;;;5029638;28;20029;-61
2021/09/08 00:11:30;;;;;;;70.15;40.60;;;17.90;99.90;;;;;;5030945;28;20501;-60
2021/09/08 00:13:56;;;;;;;66.85;40.83;;;17.90;99.90;;;;;;5030818;28;20459;-59
2021/09/08 00:16:22;;;;;;;62.30;37.67;;;18.00;99.90;;;;;;5030932;28;20083;-60
2021/09/08 00:18:47;;;;;;;71.65;42.22;;;18.00;99.90;;;;;;5031333;28;20118;-60
2021/09/08 00:21:13;;;;;;;64.55;39.47;;;18.00;99.90;;;;;;5030498;28;20045;-60
2021/09/08 00:23:39;;;;;;;69.93;41.95;;;17.90;99.90;;;;;;5031217;28;20022;-59
2021/09/08 00:26:04;;;;;;;73.50;41.95;;;17.80;99.90;;;;;;5030272;28;20042;-60
2021/09/08 00:28:30;;;;;;;71.78;40.17;;;17.80;99.90;;;;;;5030586;28;20034;-58
2021/09/08 00:30:56;;;;;;;64.63;39.58;;;17.80;99.90;;;;;;5030392;28;20025;-59
2021/09/08 00:33:21;;;;;;;73.95;40.88;;;17.80;99.90;;;;;;5031081;28;20033;-60
2021/09/08 00:35:48;;;;;;;71.35;41.25;;;17.80;99.90;;;;;;5030286;28;20151;-59
2021/09/08 00:38:14;;;;;;;70.55;40.17;;;17.80;99.90;;;;;;5046383;28;20498;-61
2021/09/08 00:40:41;;;;;;;67.78;39.25;;;17.80;99.90;;;;;;5030054;28;20109;-61
2021/09/08 00:43:07;;;;;;;69.30;40.97;;;17.80;99.90;;;;;;5030982;28;20531;-60
2021/09/08 00:45:33;;;;;;;66.53;39.92;;;17.80;99.90;;;;;;5030088;28;20033;-61
2021/09/08 00:47:59;;;;;;;68.80;39.88;;;17.80;99.90;;;;;;5030776;28;20044;-59
2021/09/08 00:50:25;;;;;;;67.75;40.30;;;17.80;99.90;;;;;;5030425;28;20416;-60
2021/09/08 00:52:52;;;;;;;75.30;40.28;;;17.70;99.90;;;;;;5030669;28;20021;-59
2021/09/08 00:55:20;;;;;;;69.85;38.58;;;17.70;99.90;;;;;;5030099;28;20029;-61
2021/09/08 00:57:46;;;;;;;65.95;38.75;;;17.70;99.90;;;;;;5030859;28;20029;-60
2021/09/08 01:00:12;;;;;;;66.05;39.58;;;17.60;99.90;;;;;;5031494;28;20095;-59
2021/09/08 01:02:40;;;;;;;64.53;39.03;;;17.60;99.90;;;;;;5034683;28;20037;-61
2021/09/08 01:05:06;;;;;;;65.47;37.75;;;17.50;99.90;;;;;;5033988;28;20033;-59
2021/09/08 01:07:32;;;;;;;67.80;38.28;;;17.50;99.90;;;;;;5034787;28;20033;-60
2021/09/08 01:09:58;;;;;;;69.10;39.72;;;17.50;99.90;;;;;;5033684;28;20044;-59
2021/09/08 01:12:24;;;;;;;62.65;39.45;;;17.50;99.90;;;;;;5034743;28;20029;-60
2021/09/08 01:14:49;;;;;;;68.90;40.72;;;17.50;99.90;;;;;;5033454;28;20017;-60
2021/09/08 01:17:18;;;;;;;69.10;41.20;;;17.40;99.90;;;;;;5034651;28;20029;-59
2021/09/08 01:19:44;;;;;;;67.50;40.35;;;17.40;99.90;;;;;;5033931;28;20075;-59
2021/09/08 01:22:10;;;;;;;65.35;39.13;;;17.40;99.90;;;;;;5034797;28;20415;-60
2021/09/08 01:24:35;;;;;;;67.20;38.75;;;17.40;99.90;;;;;;5049245;28;20715;-60
2021/09/08 01:27:03;;;;;;;68.85;41.42;;;17.30;99.90;;;;;;5034017;28;20026;-60
2021/09/08 01:29:29;;;;;;;64.18;39.70;;;17.30;99.90;;;;;;5048691;28;20053;-59
2021/09/08 01:31:58;;;;;;;65.50;39.63;;;17.30;99.90;;;;;;5033936;28;20029;-59
2021/09/08 01:34:25;;;;;;;72.90;41.35;;;17.30;99.90;;;;;;5033705;28;20025;-58
2021/09/08 01:36:53;;;;;;;69.25;40.25;;;17.30;99.90;;;;;;5033744;28;20057;-61
2021/09/08 01:39:19;;;;;;;69.57;39.65;;;17.30;99.90;;;;;;5033974;28;20526;-60
2021/09/08 01:41:49;;;;;;;69.85;40.95;;;17.20;99.90;;;;;;5033335;28;20460;-62
2021/09/08 01:44:19;;;;;;;73.50;41.03;;;17.20;99.90;;;;;;5034082;28;20029;-60
2021/09/08 01:46:46;;;;;;;75.63;43.72;;;17.20;99.90;;;;;;5033481;28;20040;-59
2021/09/08 01:49:11;;;;;;;71.60;40.22;;;17.10;99.90;;;;;;5033954;28;20036;-58
2021/09/08 01:51:37;;;;;;;71.05;42.53;;;17.10;99.90;;;;;;5033299;28;20100;-59
2021/09/08 01:54:03;;;;;;;77.00;42.65;;;17.10;99.90;;;;;;5033992;28;20029;-59
2021/09/08 01:56:28;;;;;;;76.68;43.22;;;17.10;99.90;;;;;;5032867;28;20104;-61
2021/09/08 01:58:54;;;;;;;78.38;44.50;;;17.10;99.90;;;;;;5033859;28;20499;-60
2021/09/08 02:01:22;;;;;;;81.07;45.05;;;17.10;99.90;;;;;;5032277;28;20037;-59
2021/09/08 02:03:48;;;;;;;80.90;44.55;;;17.10;99.90;;;;;;5033683;28;20507;-59
2021/09/08 02:06:23;;;;;;;77.72;45.90;;;17.20;99.90;;;;;;5032723;28;20032;-59
2021/09/08 02:08:49;;;;;;;87.20;46.55;;;17.30;99.90;;;;;;5033692;28;20037;-60
2021/09/08 02:11:15;;;;;;;79.97;45.97;;;17.30;99.90;;;;;;5047531;28;20033;-59
2021/09/08 02:13:41;;;;;;;82.70;46.33;;;17.30;99.90;;;;;;5033416;28;20034;-59
2021/09/08 02:16:06;;;;;;;81.30;45.47;;;17.30;99.90;;;;;;5028502;28;20052;-61
2021/09/08 02:18:32;;;;;;;75.68;45.38;;;17.30;99.90;;;;;;5047029;28;20139;-59
2021/09/08 02:20:58;;;;;;;88.90;47.88;;;17.40;99.90;;;;;;5048799;28;20029;-60
2021/09/08 02:23:23;;;;;;;81.68;47.90;;;17.40;99.90;;;;;;5043223;28;20030;-60
2021/09/08 02:25:49;;;;;;;88.78;48.13;;;17.40;99.90;;;;;;5048356;28;20082;-60
2021/09/08 02:28:18;;;;;;;83.55;47.65;;;17.40;99.90;;;;;;5038774;28;20399;-60
2021/09/08 02:30:44;;;;;;;82.22;46.88;;;17.50;99.90;;;;;;5052652;28;20090;-61
2021/09/08 02:33:09;;;;;;;84.07;47.70;;;17.40;99.90;;;;;;5053082;28;20029;-59
2021/09/08 02:35:35;;;;;;;83.10;46.90;;;17.50;99.90;;;;;;5047251;28;20155;-58
2021/09/08 02:38:01;;;;;;;83.43;45.42;;;17.50;99.90;;;;;;5044350;28;20029;-60
2021/09/08 02:40:26;;;;;;;83.75;45.88;;;17.40;99.90;;;;;;5052141;28;20023;-59
2021/09/08 02:42:52;;;;;;;84.22;47.08;;;17.40;99.90;;;;;;5052434;28;20036;-60
2021/09/08 02:45:18;;;;;;;83.88;47.78;;;17.40;99.90;;;;;;5052105;28;20067;-60
2021/09/08 02:47:43;;;;;;;84.50;46.05;;;17.30;99.90;;;;;;5049393;28;20021;-59
2021/09/08 02:50:11;;;;;;;82.20;45.28;;;17.30;99.90;;;;;;5045262;28;20675;-60
2021/09/08 02:52:36;;;;;;;78.82;44.58;;;17.30;99.90;;;;;;5047595;28;20021;-59
2021/09/08 02:55:02;;;;;;;77.57;44.10;;;17.30;99.90;;;;;;5042792;28;20467;-59
2021/09/08 02:57:28;;;;;;;87.15;47.17;;;17.30;99.90;;;;;;5052185;28;20108;-58
2021/09/08 02:59:53;;;;;;;78.80;45.83;;;17.30;99.90;;;;;;5052227;28;20025;-59
2021/09/08 03:02:19;;;;;;;89.30;47.55;;;17.30;99.90;;;;;;5052027;28;20494;-61
2021/09/08 03:04:45;;;;;;;85.80;47.72;;;17.30;99.90;;;;;;5052467;28;20502;-59
2021/09/08 03:07:11;;;;;;;81.65;47.58;;;17.30;99.90;;;;;;5051567;28;20037;-58
2021/09/08 03:09:36;;;;;;;85.93;48.55;;;17.40;99.90;;;;;;5052211;28;20021;-59
2021/09/08 03:12:02;;;;;;;90.07;49.80;;;17.40;99.90;;;;;;5051705;28;20041;-60
2021/09/08 03:14:28;;;;;;;89.25;47.45;;;17.50;99.90;;;;;;5051744;28;20029;-59
2021/09/08 03:16:54;;;;;;;88.80;48.35;;;17.40;99.90;;;;;;5051449;28;20055;-60
2021/09/08 03:19:19;;;;;;;87.32;47.17;;;17.40;99.90;;;;;;5052435;28;20410;-60
2021/09/08 03:21:45;;;;;;;89.80;48.97;;;17.40;99.90;;;;;;5051392;28;20136;-59
2021/09/08 03:24:11;;;;;;;84.38;48.47;;;17.40;99.90;;;;;;5050986;28;20044;-59
2021/09/08 03:26:36;;;;;;;84.03;47.20;;;17.40;99.90;;;;;;5050505;28;20083;-59
2021/09/08 03:29:02;;;;;;;87.55;48.90;;;17.40;99.90;;;;;;5052060;28;20127;-58
2021/09/08 03:31:28;;;;;;;84.70;48.20;;;17.40;99.90;;;;;;5051097;28;20025;-59
2021/09/08 03:33:53;;;;;;;83.35;47.83;;;17.30;99.90;;;;;;5052262;28;20448;-59
2021/09/08 03:36:19;;;;;;;88.85;48.08;;;17.30;99.90;;;;;;5050158;28;20033;-59
2021/09/08 03:38:45;;;;;;;87.50;48.53;;;17.30;99.90;;;;;;5051811;28;20025;-59
2021/09/08 03:41:11;;;;;;;88.03;48.42;;;17.30;99.90;;;;;;5050984;28;20031;-59
2021/09/08 03:43:36;;;;;;;87.40;48.30;;;17.30;99.90;;;;;;5051519;28;20029;-59
2021/09/08 03:46:06;;;;;;;90.60;48.67;;;17.30;99.90;;;;;;5050980;28;20033;-59
2021/09/08 03:48:33;;;;;;;88.50;48.95;;;17.20;99.90;;;;;;5043574;28;20061;-58
2021/09/08 03:50:59;;;;;;;98.80;48.90;;;17.20;99.90;;;;;;5050898;28;20036;-58
2021/09/08 03:53:25;;;;;;;88.10;48.17;;;17.20;99.90;;;;;;5051424;28;20451;-59
2021/09/08 03:55:51;;;;;;;92.40;50.40;;;17.20;99.90;;;;;;5050650;28;20441;-61
2021/09/08 03:58:16;;;;;;;87.78;47.58;;;17.20;99.90;;;;;;5051478;28;20041;-58
2021/09/08 04:00:42;;;;;;;85.10;48.20;;;17.20;99.90;;;;;;5046394;28;20037;-60
2021/09/08 04:03:09;;;;;;;88.13;49.25;;;17.10;99.90;;;;;;5041570;28;20040;-60
2021/09/08 04:05:35;;;;;;;92.68;51.05;;;17.10;99.90;;;;;;5050669;28;20387;-60
2021/09/08 04:08:00;;;;;;;88.95;49.72;;;17.10;99.90;;;;;;5051311;28;20025;-59
2021/09/08 04:10:26;;;;;;;89.03;49.00;;;17.00;99.90;;;;;;5050437;28;20047;-59
2021/09/08 04:12:52;;;;;;;90.43;49.17;;;17.00;99.90;;;;;;5037442;28;20031;-60
2021/09/08 04:15:18;;;;;;;88.13;49.50;;;17.00;99.90;;;;;;5039004;28;20037;-59
2021/09/08 04:17:43;;;;;;;91.30;49.55;;;17.00;99.90;;;;;;5044552;28;20080;-59
2021/09/08 04:20:09;;;;;;;89.47;49.42;;;17.00;99.90;;;;;;5040191;28;20041;-60
2021/09/08 04:22:36;;;;;;;91.05;49.97;;;17.00;99.90;;;;;;5050117;28;20025;-59
2021/09/08 04:25:02;;;;;;;85.05;48.30;;;17.00;99.90;;;;;;5050791;28;20059;-60
2021/09/08 04:27:28;;;;;;;85.47;47.08;;;16.90;99.90;;;;;;5050295;28;20788;-59
2021/09/08 04:29:54;;;;;;;87.40;49.45;;;16.90;99.90;;;;;;5049347;28;20045;-59
2021/09/08 04:32:19;;;;;;;91.50;48.88;;;16.90;99.90;;;;;;5050218;28;20044;-58
2021/09/08 04:34:45;;;;;;;85.05;47.45;;;16.90;99.90;;;;;;5050516;28;20078;-60
2021/09/08 04:37:11;;;;;;;93.80;51.30;;;16.90;99.90;;;;;;5050115;28;20033;-60
2021/09/08 04:39:36;;;;;;;94.43;49.83;;;16.90;99.90;;;;;;5051046;28;20032;-60
2021/09/08 04:42:02;;;;;;;97.03;51.08;;;16.90;99.90;;;;;;5049890;28;20058;-60
2021/09/08 04:44:28;;;;;;;96.72;52.97;;;16.90;99.90;;;;;;5050713;28;20029;-59
2021/09/08 04:46:54;;;;;;;98.72;52.13;;;17.00;99.90;;;;;;5047255;28;20037;-62
2021/09/08 04:49:19;;;;;;;102.93;53.80;;;17.00;99.90;;;;;;5038334;28;20064;-59
2021/09/08 04:51:45;;;;;;;96.75;52.03;;;17.00;99.90;;;;;;5049701;28;20021;-58
2021/09/08 04:54:12;;;;;;;98.65;50.85;;;17.10;99.90;;;;;;5050764;28;20056;-59
2021/09/08 04:56:38;;;;;;;96.35;51.40;;;17.20;99.90;;;;;;5050023;28;20094;-59
2021/09/08 04:59:04;;;;;;;101.40;52.88;;;17.10;99.90;;;;;;5045824;28;20116;-62
2021/09/08 05:01:30;;;;;;;97.15;52.33;;;17.10;99.90;;;;;;5040523;28;20419;-59
2021/09/08 05:03:55;;;;;;;100.85;52.47;;;17.10;99.90;;;;;;5049282;28;20033;-58
2021/09/08 05:06:21;;;;;;;101.40;53.58;;;17.10;99.90;;;;;;5049863;28;20036;-58
2021/09/08 05:08:49;;;;;;;105.45;53.45;;;17.10;99.90;;;;;;5050574;28;20064;-59
2021/09/08 05:11:15;;;;;;;101.88;55.03;;;17.00;99.90;;;;;;5050325;28;20013;-59
2021/09/08 05:13:40;;;;;;;101.63;53.65;;;17.10;99.90;;;;;;5050657;28;20383;-57
2021/09/08 05:16:08;;;;;;;101.13;55.80;;;17.00;99.90;;;;;;5034639;28;20483;-62
2021/09/08 05:18:35;;;;;;;106.30;56.22;;;17.10;99.90;;;;;;5050534;28;20094;-61
2021/09/08 05:21:01;;;;;;;103.65;56.35;;;17.00;99.90;;;;;;5049548;28;20017;-57
2021/09/08 05:23:27;;;;;;;108.13;55.67;;;17.00;99.90;;;;;;5050313;28;20037;-58
2021/09/08 05:25:53;;;;;;;106.20;55.08;;;17.00;99.90;;;;;;5050224;28;20395;-61
2021/09/08 05:28:19;;;;;;;103.57;55.35;;;17.00;99.90;;;;;;5032892;28;20102;-58
2021/09/08 05:30:46;;;;;;;101.22;53.85;;;17.00;99.90;;;;;;5040744;28;20190;-62
2021/09/08 05:33:12;;;;;;;110.38;56.70;;;17.00;99.90;;;;;;5043242;28;20415;-58
2021/09/08 05:35:38;;;;;;;105.55;55.65;;;17.00;99.90;;;;;;5050547;28;20368;-59
2021/09/08 05:38:04;;;;;;;102.47;55.08;;;16.90;99.90;;;;;;5049723;28;20036;-58
2021/09/08 05:40:31;;;;;;;106.75;54.20;;;16.90;99.90;;;;;;5050097;28;20479;-61
2021/09/08 05:42:57;;;;;;;104.60;55.80;;;16.90;99.90;;;;;;5049829;28;20300;-62
2021/09/08 05:45:24;;;;;;;102.20;54.55;;;16.90;99.90;;;;;;5036245;28;20155;-58
2021/09/08 05:47:50;;;;;;;107.95;56.08;;;16.90;99.90;;;;;;5051942;28;20029;-58
2021/09/08 05:50:16;;;;;;;113.35;58.15;;;16.90;99.90;;;;;;5053792;28;20031;-60
2021/09/08 05:52:42;;;;;;;108.25;55.78;;;16.90;99.90;;;;;;5047523;28;20040;-58
2021/09/08 05:55:08;;;;;;;108.22;57.35;;;16.90;99.90;;;;;;5039661;28;20041;-61
2021/09/08 05:57:34;;;;;;;112.72;56.75;;;17.00;99.90;;;;;;5053106;28;20031;-61
2021/09/08 06:00:00;;;;;;;114.07;56.83;;;17.00;99.90;;;;;;5053704;28;20025;-60
2021/09/08 06:02:25;;;;;;;108.88;55.17;;;16.90;99.90;;;;;;5052683;28;20025;-61
2021/09/08 06:04:51;;;;;;;107.93;56.70;;;16.90;99.90;;;;;;5053486;28;20437;-60
2021/09/08 06:07:16;;;;;;;112.60;57.72;;;17.00;99.90;;;;;;5038504;28;20033;-60
2021/09/08 06:09:42;;;;;;;104.18;55.67;;;17.00;99.90;;;;;;5054129;28;20103;-59
2021/09/08 06:12:08;;;;;;;110.22;57.90;;;17.00;99.90;;;;;;5052453;28;20029;-59
2021/09/08 06:14:34;;;;;;;111.45;56.67;;;16.90;99.90;;;;;;5053577;28;20029;-61
2021/09/08 06:17:00;;;;;;;108.05;56.40;;;16.90;99.90;;;;;;5052563;28;20028;-60
2021/09/08 06:19:25;;;;;;;106.88;56.97;;;17.00;99.90;;;;;;5053154;28;20067;-58
2021/09/08 06:21:51;;;;;;;110.15;57.17;;;17.00;99.90;;;;;;5044671;28;20084;-61
2021/09/08 06:24:17;;;;;;;106.80;57.33;;;17.10;99.90;;;;;;5034192;28;20440;-62
2021/09/08 06:26:42;;;;;;;100.18;54.25;;;17.20;99.90;;;;;;5047065;28;20428;-59
2021/09/08 06:29:08;;;;;;;109.28;56.17;;;17.20;99.90;;;;;;5032994;28;20522;-60
2021/09/08 06:31:34;;;;;;;111.68;55.33;;;17.30;99.90;;;;;;5048886;28;20082;-61
2021/09/08 06:33:59;;;;;;;121.38;58.65;;;17.40;99.90;;;;;;5052853;28;20063;-59
2021/09/08 06:36:25;;;;;;;111.43;56.05;;;17.40;99.90;;;;;;5052805;28;20036;-62
2021/09/08 06:38:51;;;;;;;110.03;55.67;;;17.40;99.90;;;;;;5052266;28;20506;-59
2021/09/08 06:41:17;;;;;;;111.00;54.90;;;17.50;99.90;;;;;;5052883;28;20033;-60
2021/09/08 06:43:42;;;;;;;95.65;52.70;;;17.50;99.90;;;;;;5051760;28;20029;-59
2021/09/08 06:46:08;;;;;;;99.35;53.58;;;17.60;99.90;;;;;;5052969;28;20079;-61
2021/09/08 06:48:34;;;;;;;104.40;53.00;;;17.70;99.90;;;;;;5051996;28;20159;-62
2021/09/08 06:51:00;;;;;;;110.20;52.65;;;17.70;99.90;;;;;;5052656;28;20040;-60
2021/09/08 06:53:26;;;;;;;102.72;53.10;;;17.80;99.90;;;;;;5051785;28;20021;-62
2021/09/08 06:55:52;;;;;;;91.50;52.17;;;17.80;99.90;;;;;;5052555;28;20056;-61
2021/09/08 06:58:18;;;;;;;102.93;51.17;;;17.80;99.90;;;;;;5051568;28;20124;-61
2021/09/08 07:00:43;;;;;;;97.13;51.70;;;17.90;99.90;;;;;;5052277;28;20096;-59
2021/09/08 07:03:09;;;;;;;99.53;51.95;;;18.00;99.90;;;;;;5051500;28;20096;-60
2021/09/08 07:05:35;;;;;;;93.97;49.85;;;18.00;99.90;;;;;;5052164;28;20044;-60
2021/09/08 07:08:05;;;;;;;91.07;50.47;;;18.20;99.90;;;;;;5051509;28;20029;-59
2021/09/08 07:10:31;;;;;;;96.63;49.83;;;18.20;99.90;;;;;;5052059;28;20017;-60
2021/09/08 07:12:56;;;;;;;93.97;49.97;;;18.30;99.90;;;;;;5051764;28;20031;-61
2021/09/08 07:15:22;;;;;;;90.53;49.22;;;18.30;99.90;;;;;;5052276;28;20059;-59
2021/09/08 07:17:48;;;;;;;100.50;51.33;;;18.40;99.90;;;;;;5051320;28;20075;-60
2021/09/08 07:20:13;;;;;;;114.50;51.90;;;18.50;99.90;;;;;;5052144;28;20029;-61
2021/09/08 07:22:39;;;;;;;98.93;51.75;;;18.60;99.90;;;;;;5039646;28;20120;-60
2021/09/08 07:25:06;;;;;;;95.22;49.88;;;18.80;99.90;;;;;;5051788;28;20021;-62
2021/09/08 07:27:31;;;;;;;88.63;48.95;;;19.10;99.90;;;;;;5051142;28;20040;-60
2021/09/08 07:29:57;;;;;;;84.28;48.00;;;19.40;99.90;;;;;;5051685;28;20049;-60
2021/09/08 07:32:23;;;;;;;92.20;49.85;;;19.70;99.90;;;;;;5051387;28;20025;-60
2021/09/08 07:34:48;;;;;;;90.95;47.88;;;20.00;99.90;;;;;;5050426;28;20037;-61
2021/09/08 07:37:16;;;;;;;88.53;48.15;;;20.30;99.90;;;;;;5034702;28;20096;-60
2021/09/08 07:39:42;;;;;;;89.65;48.67;;;20.50;99.90;;;;;;5031959;28;20029;-61
2021/09/08 07:42:07;;;;;;;83.82;48.03;;;20.60;99.90;;;;;;5031249;28;20037;-60
2021/09/08 07:44:33;;;;;;;82.22;44.90;;;20.70;99.90;;;;;;5031713;28;20032;-63
2021/09/08 07:46:59;;;;;;;89.18;47.30;;;21.00;99.90;;;;;;5030692;28;20448;-59
2021/09/08 07:49:25;;;;;;;79.25;44.80;;;21.20;99.90;;;;;;5031486;28;20044;-62
2021/09/08 07:51:50;;;;;;;85.15;44.58;;;21.40;99.90;;;;;;5031342;28;20025;-60
2021/09/08 07:54:16;;;;;;;76.22;42.75;;;21.50;99.90;;;;;;5030714;28;20063;-60
2021/09/08 07:56:42;;;;;;;75.47;43.63;;;21.70;99.90;;;;;;5031505;28;20041;-61
2021/09/08 07:59:07;;;;;;;71.53;41.47;;;21.80;99.90;;;;;;5030666;28;20033;-60
2021/09/08 08:01:34;;;;;;;78.75;43.60;;;21.90;99.90;;;;;;5031579;28;20033;-59
2021/09/08 08:04:00;;;;;;;80.43;41.60;;;22.10;99.90;;;;;;5030498;28;20033;-60
2021/09/08 08:06:26;;;;;;;75.32;41.72;;;22.30;99.90;;;;;;5030100;28;20400;-61
2021/09/08 08:08:51;;;;;;;76.60;40.78;;;22.50;99.90;;;;;;5030176;28;20025;-62
2021/09/08 08:11:18;;;;;;;68.68;40.00;;;22.60;99.90;;;;;;5030612;28;20033;-60
2021/09/08 08:13:47;;;;;;;68.72;38.75;;;22.80;99.90;;;;;;5030311;28;20105;-63
2021/09/08 08:16:16;;;;;;;70.47;38.22;;;23.00;99.90;;;;;;5031399;28;20400;-60
2021/09/08 08:18:42;;;;;;;64.60;36.60;;;23.20;99.90;;;;;;5030513;28;20082;-60
2021/09/08 08:21:08;;;;;;;61.28;36.30;;;23.30;99.90;;;;;;5031101;28;20033;-62
2021/09/08 08:23:34;;;;;;;59.50;33.30;;;23.30;99.90;;;;;;5026134;28;20388;-61
2021/09/08 08:25:59;;;;;;;59.90;33.75;;;23.50;99.90;;;;;;5041975;28;20088;-61
2021/09/08 08:28:25;;;;;;;57.70;32.40;;;23.70;99.90;;;;;;5049914;28;20127;-61
2021/09/08 08:30:52;;;;;;;54.28;31.60;;;23.90;99.90;;;;;;5050828;28;20025;-61
2021/09/08 08:33:18;;;;;;;51.50;32.15;;;24.10;99.90;;;;;;5050077;28;20048;-59
2021/09/08 08:35:44;;;;;;;51.95;31.45;;;24.30;99.90;;;;;;5049573;28;20043;-60
2021/09/08 08:38:09;;;;;;;52.65;30.67;;;24.30;99.90;;;;;;5049898;28;20029;-62
2021/09/08 08:40:35;;;;;;;49.95;29.42;;;24.30;99.90;;;;;;5044639;28;20109;-61
2021/09/08 08:43:01;;;;;;;48.35;28.70;;;24.50;99.90;;;;;;5042994;28;20033;-61
2021/09/08 08:45:29;;;;;;;44.20;27.10;;;24.60;99.90;;;;;;5050626;28;20475;-61
2021/09/08 08:47:56;;;;;;;53.08;28.30;;;24.90;99.90;;;;;;5050268;28;20033;-60
2021/09/08 08:50:25;;;;;;;49.80;26.55;;;25.10;99.90;;;;;;5050677;28;20501;-61
2021/09/08 08:52:52;;;;;;;50.05;29.00;;;25.20;99.90;;;;;;5050051;28;20464;-61
2021/09/08 08:55:18;;;;;;;46.63;28.38;;;25.40;99.90;;;;;;5050646;28;20029;-62
2021/09/08 08:57:48;;;;;;;42.05;26.88;;;25.50;99.90;;;;;;5050165;28;20386;-60
2021/09/08 09:00:18;;;;;;;50.58;26.92;;;25.70;99.90;;;;;;5050444;28;20108;-62
2021/09/08 09:02:49;;;;;;;48.72;26.48;;;25.80;99.90;;;;;;5050104;28;20095;-60
2021/09/08 09:05:29;;;;;;;45.78;25.77;;;25.80;99.90;;;;;;5050538;28;20043;-60
2021/09/08 09:07:55;;;;;;;39.40;23.40;;;25.70;99.90;;;;;;5050089;28;20037;-62
2021/09/08 09:10:20;;;;;;;34.85;20.83;;;25.80;99.90;;;;;;5050669;28;20033;-61
2021/09/08 09:12:46;;;;;;;34.30;22.38;;;25.90;99.90;;;;;;5050165;28;20037;-62
2021/09/08 09:15:15;;;;;;;36.15;20.10;;;26.00;99.90;;;;;;5050303;28;20432;-62
2021/09/08 09:17:41;;;;;;;27.90;18.35;;;26.20;99.90;;;;;;5049851;28;20025;-61
2021/09/08 09:20:10;;;;;;;27.73;17.75;;;26.20;99.90;;;;;;5040490;28;20037;-61
2021/09/08 09:22:42;;;;;;;36.17;17.73;;;26.40;99.90;;;;;;5038380;28;20068;-62
2021/09/08 09:25:10;;;;;;;27.40;17.10;;;26.40;99.90;;;;;;5054099;28;20098;-60
2021/09/08 09:27:57;;;;;;;25.90;15.90;;;26.60;99.90;;;;;;5054127;28;20067;-60
2021/09/08 09:30:29;;;;;;;24.85;15.93;;;26.70;99.90;;;;;;5053923;28;20088;-61
2021/09/08 09:32:56;;;;;;;29.65;17.38;;;26.60;99.90;;;;;;5053633;28;20446;-61
2021/09/08 09:35:28;;;;;;;30.42;15.43;;;26.60;99.90;;;;;;5052626;28;20558;-61
2021/09/08 09:37:56;;;;;;;28.60;14.35;;;26.60;99.90;;;;;;5053601;28;20032;-63
2021/09/08 09:40:37;;;;;;;26.25;14.75;;;26.40;99.90;;;;;;5049051;28;20073;-60
2021/09/08 09:43:10;;;;;;;23.20;13.65;;;26.60;99.90;;;;;;5046622;28;20037;-60
2021/09/08 09:45:41;;;;;;;22.60;13.90;;;26.70;99.90;;;;;;5053866;28;20037;-61
2021/09/08 09:48:07;;;;;;;21.92;13.48;;;26.50;99.90;;;;;;5053215;28;20037;-61
2021/09/08 09:50:34;;;;;;;19.63;12.95;;;26.80;99.90;;;;;;5052935;28;20029;-61
2021/09/08 09:53:00;;;;;;;20.27;12.77;;;26.80;99.90;;;;;;5042053;28;20032;-63
2021/09/08 09:55:27;;;;;;;18.90;11.98;;;26.90;99.90;;;;;;5050556;28;20033;-61
2021/09/08 09:57:54;;;;;;;19.65;12.45;;;27.10;99.90;;;;;;5053155;28;20036;-59
2021/09/08 10:00:20;;;;;;;19.17;12.20;;;27.20;99.90;;;;;;5053223;28;20025;-58
2021/09/08 10:02:47;;;;;;;18.70;11.15;;;27.10;99.90;;;;;;5053529;28;20060;-58
2021/09/08 10:05:14;;;;;;;19.17;11.88;;;26.90;99.90;;;;;;5053086;28;20029;-61
2021/09/08 10:07:41;;;;;;;21.02;12.02;;;27.10;99.90;;;;;;5052223;28;20387;-60
2021/09/08 10:10:27;;;;;;;18.38;11.88;;;27.10;99.90;;;;;;5052912;28;20040;-62
2021/09/08 10:13:01;;;;;;;22.25;10.73;;;27.10;99.90;;;;;;5046806;28;20045;-61
2021/09/08 10:15:28;;;;;;;16.80;11.13;;;27.00;99.90;;;;;;5046766;28;20029;-60
2021/09/08 10:18:09;;;;;;;19.60;11.18;;;27.00;99.90;;;;;;5039145;28;20025;-60
2021/09/08 10:20:35;;;;;;;19.30;11.23;;;27.00;99.90;;;;;;5053163;28;20031;-60
2021/09/08 10:23:11;;;;;;;15.73;10.68;;;26.90;99.90;;;;;;5040759;28;20044;-60
2021/09/08 10:25:44;;;;;;;18.33;9.85;;;27.00;99.90;;;;;;5052864;28;20406;-61
2021/09/08 10:28:15;;;;;;;14.43;9.52;;;27.10;99.90;;;;;;5038106;28;20096;-58
2021/09/08 10:30:42;;;;;;;16.38;10.57;;;27.00;99.90;;;;;;5053107;28;20033;-60
2021/09/08 10:33:09;;;;;;;18.17;9.55;;;27.00;99.90;;;;;;5050532;28;20094;-60
2021/09/08 10:35:39;;;;;;;19.33;10.77;;;27.10;99.90;;;;;;5040481;28;20448;-59
2021/09/08 10:38:32;;;;;;;19.88;10.00;;;27.30;99.90;;;;;;5052342;28;20037;-61
2021/09/08 10:40:58;;;;;;;17.48;10.27;;;27.40;99.90;;;;;;5043348;28;20048;-61
2021/09/08 10:43:28;;;;;;;12.80;9.35;;;27.50;99.90;;;;;;5052237;28;20036;-60
2021/09/08 10:45:55;;;;;;;17.23;9.88;;;27.50;99.90;;;;;;5053002;28;20128;-62
2021/09/08 10:48:40;;;;;;;17.25;8.63;;;27.60;99.90;;;;;;5052214;28;20060;-61
2021/09/08 10:51:09;;;;;;;19.05;10.60;;;27.50;99.90;;;;;;5052806;28;20104;-61
2021/09/08 10:53:37;;;;;;;16.17;9.60;;;27.30;99.90;;;;;;5052076;28;20593;-61
2021/09/08 10:56:04;;;;;;;17.63;10.23;;;27.40;99.90;;;;;;5045074;28;20037;-60
2021/09/08 10:58:56;;;;;;;12.23;9.60;;;27.50;99.90;;;;;;5045944;28;20037;-61
2021/09/08 11:01:22;;;;;;;17.45;9.52;;;27.50;99.90;;;;;;5052741;28;20037;-59
2021/09/08 11:03:49;;;;;;;15.05;9.32;;;27.50;99.90;;;;;;5051581;28;20039;-59
2021/09/08 11:06:15;;;;;;;15.50;8.77;;;27.40;99.90;;;;;;5052267;28;20025;-60
2021/09/08 11:08:40;;;;;;;16.95;8.70;;;27.50;99.90;;;;;;5051782;28;20029;-60
2021/09/08 11:11:16;;;;;;;17.45;8.75;;;27.50;99.90;;;;;;5051995;28;20040;-60
2021/09/08 11:13:43;;;;;;;20.90;9.88;;;27.50;99.90;;;;;;5051699;28;20036;-60
2021/09/08 11:16:15;;;;;;;11.82;8.00;;;27.50;99.90;;;;;;5051902;28;20110;-60
2021/09/08 11:18:42;;;;;;;17.83;9.95;;;27.60;99.90;;;;;;5051884;28;20032;-60
2021/09/08 11:21:07;;;;;;;15.10;7.95;;;27.60;99.90;;;;;;5050167;28;20166;-60
2021/09/08 11:23:33;;;;;;;13.15;8.10;;;27.70;99.90;;;;;;5041949;28;20036;-61
2021/09/08 11:26:08;;;;;;;15.68;8.00;;;27.80;99.90;;;;;;5051012;28;20183;-59
2021/09/08 11:28:35;;;;;;;14.55;8.70;;;27.90;99.90;;;;;;5050383;28;20052;-60
2021/09/08 11:31:15;;;;;;;22.73;7.65;;;27.90;99.90;;;;;;5052265;28;20032;-59
2021/09/08 11:33:41;;;;;;;14.85;7.47;;;28.00;99.90;;;;;;5051215;28;20029;-60
2021/09/08 11:36:14;;;;;;;14.27;8.52;;;28.00;99.90;;;;;;5051796;28;20032;-60
2021/09/08 11:38:59;;;;;;;11.88;7.78;;;27.90;99.90;;;;;;5051321;28;20162;-60
2021/09/08 11:41:27;;;;;;;12.38;8.10;;;28.10;99.90;;;;;;5051866;28;20025;-60
2021/09/08 11:43:55;;;;;;;12.93;8.02;;;28.20;99.90;;;;;;5049258;28;20399;-60
2021/09/08 11:46:25;;;;;;;10.43;6.95;;;28.30;99.90;;;;;;5051161;28;20082;-59
2021/09/08 11:49:02;;;;;;;16.38;8.25;;;28.30;99.90;;;;;;5050868;28;20037;-59
2021/09/08 11:51:28;;;;;;;17.58;8.88;;;28.10;99.90;;;;;;5051578;28;20037;-60
2021/09/08 11:53:55;;;;;;;13.02;7.72;;;28.10;99.90;;;;;;5050712;28;20078;-60
2021/09/08 11:56:22;;;;;;;19.95;8.30;;;28.10;99.90;;;;;;5051037;28;20036;-59
2021/09/08 11:58:59;;;;;;;13.48;8.00;;;28.10;99.90;;;;;;5041460;28;20022;-59
2021/09/08 12:01:25;;;;;;;16.92;8.50;;;28.00;99.90;;;;;;5051638;28;20021;-60
2021/09/08 12:03:57;;;;;;;11.25;8.50;;;28.10;99.90;;;;;;5050566;28;20033;-59
2021/09/08 12:06:25;;;;;;;13.52;7.28;;;28.10;99.90;;;;;;5051345;28;20146;-61
2021/09/08 12:08:54;;;;;;;13.13;7.60;;;28.20;99.90;;;;;;5036444;28;20044;-59
2021/09/08 12:11:37;;;;;;;10.23;7.28;;;28.10;99.90;;;;;;5049792;28;20471;-61
2021/09/08 12:14:26;;;;;;;11.43;7.00;;;28.00;99.90;;;;;;5049366;28;20710;-61
2021/09/08 12:17:09;;;;;;;15.88;7.38;;;28.10;99.90;;;;;;5051093;28;20029;-59
2021/09/08 12:19:43;;;;;;;19.90;7.47;;;28.20;99.90;;;;;;5050136;28;20028;-61
2021/09/08 12:22:15;;;;;;;19.23;6.97;;;28.20;99.90;;;;;;5041199;28;20104;-61
2021/09/08 12:24:56;;;;;;;15.52;7.00;;;28.20;99.90;;;;;;5050034;28;20501;-60
2021/09/08 12:27:35;;;;;;;12.85;7.30;;;28.10;99.90;;;;;;5051082;28;20029;-62